Time;durP1;ratioP1;P1;durP2;ratioP2;P2;SDS_P1;SDS_P2;PMS_P1;PMS_P2;Temp;Humidity;BMP_temperature;BMP_pressure;BME280_temperature;BME280_humidity;BME280_pressure;Samples;Min_cycle;Max_cycle;Signal;HPM_P1;HPM_P2
2022/07/30 00:00:04;;;;;;;6.95;2.50;;;22.50;43.80;;;;;;4992605;28;20064;-44
2022/07/30 00:02:31;;;;;;;4.43;2.28;;;22.50;43.90;;;;;;5001348;28;20413;-46
2022/07/30 00:04:59;;;;;;;4.53;2.35;;;22.40;43.90;;;;;;5001944;28;20053;-43
2022/07/30 00:07:26;;;;;;;4.15;2.60;;;22.30;44.00;;;;;;5001045;28;20057;-42
2022/07/30 00:09:53;;;;;;;6.82;2.42;;;22.30;44.00;;;;;;4996752;28;20069;-42
2022/07/30 00:12:20;;;;;;;7.80;2.15;;;22.30;44.00;;;;;;4999038;28;20046;-43
2022/07/30 00:14:48;;;;;;;5.80;2.67;;;22.30;44.10;;;;;;4994437;28;20426;-44
2022/07/30 00:17:16;;;;;;;5.93;2.60;;;22.30;44.70;;;;;;5000571;28;20057;-43
2022/07/30 00:19:43;;;;;;;4.63;2.53;;;22.20;44.30;;;;;;4998506;28;20084;-45
2022/07/30 00:22:11;;;;;;;5.60;2.75;;;22.20;44.40;;;;;;4999206;28;20054;-46
2022/07/30 00:24:38;;;;;;;7.65;2.80;;;22.10;44.40;;;;;;5000164;28;20087;-48
2022/07/30 00:27:05;;;;;;;7.85;2.65;;;22.10;44.50;;;;;;4994134;28;20054;-49
2022/07/30 00:29:32;;;;;;;7.40;2.60;;;22.10;44.40;;;;;;4996006;28;20065;-44
2022/07/30 00:32:00;;;;;;;6.95;3.20;;;22.00;44.40;;;;;;4993153;28;20066;-43
2022/07/30 00:34:28;;;;;;;5.13;2.83;;;22.00;44.50;;;;;;4997452;28;20419;-44
2022/07/30 00:36:55;;;;;;;4.75;2.50;;;21.90;44.50;;;;;;4999040;28;20062;-42
2022/07/30 00:39:23;;;;;;;3.85;2.22;;;21.90;44.60;;;;;;4997677;28;20061;-45
2022/07/30 00:41:55;;;;;;;6.65;2.75;;;21.90;44.60;;;;;;5001692;28;20053;-42
2022/07/30 00:44:22;;;;;;;4.47;2.67;;;21.90;44.80;;;;;;4994564;28;20592;-46
2022/07/30 00:46:49;;;;;;;4.30;2.60;;;21.90;44.70;;;;;;4997749;28;20065;-44
2022/07/30 00:49:16;;;;;;;4.38;2.22;;;21.90;44.80;;;;;;5000814;28;20061;-42
2022/07/30 00:51:45;;;;;;;4.10;2.42;;;21.90;44.80;;;;;;4999808;28;20054;-45
2022/07/30 00:54:14;;;;;;;4.60;2.90;;;21.80;44.80;;;;;;4997097;28;20049;-42
2022/07/30 00:56:41;;;;;;;5.63;3.17;;;21.80;44.90;;;;;;4995918;28;20055;-44
2022/07/30 00:59:08;;;;;;;4.95;2.60;;;21.80;45.10;;;;;;5000447;28;20522;-46
2022/07/30 01:01:36;;;;;;;5.85;2.88;;;21.80;45.20;;;;;;4998557;28;20516;-43
2022/07/30 01:04:03;;;;;;;8.02;2.88;;;21.70;45.20;;;;;;5000109;28;20061;-42
2022/07/30 01:06:30;;;;;;;4.97;2.63;;;21.70;45.30;;;;;;4997054;28;20065;-44
2022/07/30 01:08:59;;;;;;;5.53;2.92;;;21.70;45.50;;;;;;4993827;28;20050;-43
2022/07/30 01:11:33;;;;;;;6.43;3.03;;;21.60;45.50;;;;;;4996116;28;20050;-44
2022/07/30 01:14:00;;;;;;;5.38;3.08;;;21.60;45.60;;;;;;4994312;28;20054;-42
2022/07/30 01:16:28;;;;;;;5.30;2.92;;;21.60;45.50;;;;;;4997885;28;20518;-43
2022/07/30 01:21:51;;;;;;;4.70;2.72;;;21.50;45.60;;;;;;5001924;28;20061;-44
2022/07/30 01:24:28;;;;;;;8.35;3.55;;;21.50;45.80;;;;;;5000601;28;20093;-44
2022/07/30 01:26:58;;;;;;;7.05;3.10;;;21.50;45.90;;;;;;4995016;28;20065;-43
2022/07/30 01:29:28;;;;;;;8.20;3.22;;;21.50;45.90;;;;;;4997165;28;20058;-43
2022/07/30 01:31:58;;;;;;;5.70;2.75;;;21.40;45.90;;;;;;4997033;28;20057;-42
2022/07/30 01:34:28;;;;;;;5.43;2.92;;;21.40;45.90;;;;;;4998850;28;20493;-44
2022/07/30 01:36:57;;;;;;;4.97;2.83;;;21.40;46.00;;;;;;4999377;28;20054;-43
2022/07/30 01:39:26;;;;;;;4.90;2.95;;;21.30;46.00;;;;;;4996465;28;20050;-43
2022/07/30 01:41:55;;;;;;;4.93;2.70;;;21.30;46.10;;;;;;4995592;28;20054;-44
2022/07/30 01:44:25;;;;;;;5.63;2.38;;;21.30;46.10;;;;;;5003066;28;20487;-43
2022/07/30 01:46:55;;;;;;;4.75;2.20;;;21.20;46.10;;;;;;5001386;28;20046;-43
2022/07/30 01:49:24;;;;;;;7.07;2.47;;;21.20;46.10;;;;;;4998838;28;20073;-43
2022/07/30 01:51:53;;;;;;;4.47;2.50;;;21.20;46.20;;;;;;5000594;28;20060;-44
2022/07/30 01:54:23;;;;;;;6.05;3.05;;;21.10;46.20;;;;;;5000298;28;20049;-46
2022/07/30 01:56:53;;;;;;;4.65;2.60;;;21.10;46.30;;;;;;5003055;28;20057;-44
2022/07/30 02:02:45;;;;;;;6.20;2.80;;;21.00;46.50;;;;;;5003748;28;20052;-42
2022/07/30 02:05:12;;;;;;;7.75;3.05;;;21.00;46.50;;;;;;5004273;28;20061;-43
2022/07/30 02:07:52;;;;;;;4.30;2.40;;;21.00;46.60;;;;;;5003821;28;20061;-42
2022/07/30 02:10:28;;;;;;;5.43;3.22;;;20.90;46.70;;;;;;4999837;28;20068;-42
2022/07/30 02:12:59;;;;;;;5.35;2.70;;;20.90;46.80;;;;;;5000674;28;20061;-43
2022/07/30 02:15:36;;;;;;;5.80;2.95;;;20.80;46.80;;;;;;5000773;28;20054;-44
2022/07/30 02:18:10;;;;;;;6.18;3.10;;;20.80;47.20;;;;;;5002606;28;20066;-44
2022/07/30 02:20:40;;;;;;;5.18;3.47;;;20.80;47.40;;;;;;4998922;28;20062;-42
2022/07/30 02:23:11;;;;;;;5.90;3.03;;;20.80;47.50;;;;;;5003340;28;20053;-45
2022/07/30 02:25:44;;;;;;;4.68;3.22;;;20.70;47.70;;;;;;4998826;28;20846;-42
2022/07/30 02:28:14;;;;;;;6.82;3.80;;;20.70;47.90;;;;;;4998216;28;20053;-44
2022/07/30 02:30:46;;;;;;;5.00;3.35;;;20.70;48.00;;;;;;4998601;28;20589;-42
2022/07/30 02:33:17;;;;;;;4.82;3.33;;;20.70;48.10;;;;;;5004638;28;20052;-42
2022/07/30 02:35:45;;;;;;;5.65;3.60;;;20.70;48.20;;;;;;5000047;28;20050;-45
2022/07/30 02:38:16;;;;;;;5.80;4.43;;;20.70;48.20;;;;;;5002965;28;20056;-44
2022/07/30 02:40:44;;;;;;;5.85;3.40;;;20.70;48.40;;;;;;4998978;28;20050;-43
2022/07/30 02:43:15;;;;;;;6.60;3.90;;;20.70;48.40;;;;;;5003334;28;20058;-42
2022/07/30 02:45:46;;;;;;;6.50;4.00;;;20.70;48.50;;;;;;5000417;28;20046;-43
2022/07/30 02:48:16;;;;;;;8.27;4.10;;;20.70;48.60;;;;;;5001209;28;20406;-44
2022/07/30 02:50:44;;;;;;;9.85;4.93;;;20.70;48.60;;;;;;4995932;28;20053;-46
2022/07/30 02:53:14;;;;;;;6.72;4.32;;;20.70;48.80;;;;;;5001129;28;20054;-42
2022/07/30 02:55:43;;;;;;;8.43;4.97;;;20.70;48.70;;;;;;4998798;28;20402;-44
2022/07/30 02:58:12;;;;;;;12.10;4.80;;;20.70;48.80;;;;;;5002208;28;20137;-42
2022/07/30 03:00:41;;;;;;;10.85;5.25;;;20.70;48.80;;;;;;4999706;28;20049;-44
2022/07/30 03:03:09;;;;;;;9.23;4.93;;;20.70;48.90;;;;;;5000165;28;20443;-44
2022/07/30 03:05:39;;;;;;;8.43;4.88;;;20.60;48.90;;;;;;4997300;28;20076;-44
2022/07/30 03:08:08;;;;;;;8.75;5.38;;;20.60;49.10;;;;;;4991548;28;20058;-42
2022/07/30 03:10:37;;;;;;;6.28;4.25;;;20.60;49.10;;;;;;5001017;28;20065;-42
2022/07/30 03:13:06;;;;;;;8.48;5.57;;;20.60;49.00;;;;;;5002273;28;20057;-44
2022/07/30 03:15:35;;;;;;;9.30;4.68;;;20.60;49.10;;;;;;4990062;28;20050;-43
2022/07/30 03:18:05;;;;;;;9.32;4.18;;;20.60;49.00;;;;;;4998158;28;20050;-46
2022/07/30 03:20:35;;;;;;;7.05;4.55;;;20.50;49.00;;;;;;4993753;28;20077;-45
2022/07/30 03:23:05;;;;;;;7.88;4.07;;;20.50;49.10;;;;;;4996565;28;20813;-42
2022/07/30 03:25:33;;;;;;;5.63;4.15;;;20.50;49.60;;;;;;5002577;28;20498;-44
2022/07/30 03:28:02;;;;;;;7.75;4.15;;;20.50;49.10;;;;;;4999585;28;20058;-44
2022/07/30 03:30:31;;;;;;;6.63;3.97;;;20.50;49.10;;;;;;4999298;28;20509;-42
2022/07/30 03:32:58;;;;;;;6.72;4.78;;;20.50;49.10;;;;;;4998869;28;20489;-42
2022/07/30 03:35:27;;;;;;;6.18;4.43;;;20.50;49.20;;;;;;5003558;28;20054;-45
2022/07/30 03:37:55;;;;;;;6.60;3.67;;;20.50;49.20;;;;;;4999356;28;20901;-43
2022/07/30 03:40:24;;;;;;;8.15;4.35;;;20.50;49.20;;;;;;4997364;28;21296;-46
2022/07/30 03:42:52;;;;;;;9.15;4.65;;;20.50;49.30;;;;;;4998176;28;20057;-44
2022/07/30 03:45:20;;;;;;;7.97;4.10;;;20.50;49.30;;;;;;4998633;28;20064;-43
2022/07/30 03:47:48;;;;;;;8.93;4.03;;;20.50;49.30;;;;;;5003777;28;20054;-43
2022/07/30 03:50:15;;;;;;;7.07;4.72;;;20.50;49.30;;;;;;5003012;28;20418;-43
2022/07/30 03:52:43;;;;;;;7.68;4.15;;;20.50;49.30;;;;;;4998733;28;20050;-43
2022/07/30 03:55:12;;;;;;;9.57;5.80;;;20.50;49.40;;;;;;5001370;28;20062;-47
2022/07/30 03:57:40;;;;;;;10.40;4.85;;;20.40;49.30;;;;;;4988383;28;20514;-42
2022/07/30 04:00:14;;;;;;;9.35;4.78;;;20.40;49.30;;;;;;4986890;28;20053;-42
2022/07/30 04:02:42;;;;;;;10.43;5.57;;;20.40;49.40;;;;;;4991506;28;20058;-45
2022/07/30 04:05:09;;;;;;;9.88;4.50;;;20.40;49.40;;;;;;4992118;28;20081;-45
2022/07/30 04:07:36;;;;;;;6.78;5.18;;;20.40;49.40;;;;;;4997025;28;20498;-43
2022/07/30 04:10:04;;;;;;;9.02;4.38;;;20.40;49.40;;;;;;4996014;28;20054;-43
2022/07/30 04:12:32;;;;;;;11.50;5.10;;;20.40;49.40;;;;;;4993821;28;20058;-43
2022/07/30 04:15:00;;;;;;;7.70;4.90;;;20.30;49.40;;;;;;4995476;28;20521;-43
2022/07/30 04:17:32;;;;;;;14.60;4.70;;;20.40;49.50;;;;;;4985121;28;20050;-42
2022/07/30 04:20:04;;;;;;;7.53;4.47;;;20.30;49.60;;;;;;4991936;28;20046;-44
2022/07/30 04:22:33;;;;;;;7.13;4.63;;;20.30;49.60;;;;;;5001091;28;20061;-42
2022/07/30 04:25:02;;;;;;;10.50;4.40;;;20.30;49.60;;;;;;4997879;28;20053;-43
2022/07/30 04:27:31;;;;;;;8.32;4.60;;;20.20;49.60;;;;;;4994382;28;20061;-43
2022/07/30 04:30:00;;;;;;;6.47;4.22;;;20.20;49.70;;;;;;4998275;28;20509;-43
2022/07/30 04:32:28;;;;;;;10.57;4.88;;;20.20;49.80;;;;;;4999745;28;20081;-42
2022/07/30 04:34:56;;;;;;;13.10;4.25;;;20.20;49.80;;;;;;4995514;28;20417;-43
2022/07/30 04:37:25;;;;;;;8.77;5.13;;;20.20;50.00;;;;;;4990601;28;20049;-46
2022/07/30 04:39:54;;;;;;;6.95;4.30;;;20.20;50.00;;;;;;4996116;28;20054;-43
2022/07/30 04:42:22;;;;;;;8.88;4.03;;;20.10;50.00;;;;;;4997600;28;20057;-42
2022/07/30 04:44:49;;;;;;;7.90;4.55;;;20.20;50.10;;;;;;4999572;28;20065;-43
2022/07/30 04:47:18;;;;;;;9.13;4.53;;;20.10;50.10;;;;;;4996739;28;20058;-43
2022/07/30 04:49:47;;;;;;;9.15;4.72;;;20.10;50.30;;;;;;4995776;28;20537;-42
2022/07/30 04:52:15;;;;;;;7.57;4.43;;;20.10;50.30;;;;;;4998556;28;20058;-42
2022/07/30 04:54:46;;;;;;;9.93;4.22;;;20.10;50.30;;;;;;4993214;28;20050;-46
2022/07/30 04:57:15;;;;;;;8.25;4.43;;;20.10;50.40;;;;;;4991084;28;20050;-44
2022/07/30 04:59:42;;;;;;;8.43;5.10;;;20.10;50.40;;;;;;4993021;28;20049;-46
2022/07/30 05:02:11;;;;;;;9.07;4.28;;;20.20;50.50;;;;;;4993968;28;20421;-44
2022/07/30 05:04:41;;;;;;;9.80;4.53;;;20.10;50.50;;;;;;4998578;28;20065;-49
2022/07/30 05:07:12;;;;;;;8.57;5.30;;;20.10;50.50;;;;;;5000774;28;20053;-45
2022/07/30 05:09:40;;;;;;;9.88;4.93;;;20.20;50.60;;;;;;4995560;28;20053;-45
2022/07/30 05:12:07;;;;;;;9.15;4.72;;;20.20;50.50;;;;;;4998081;28;20402;-46
2022/07/30 05:14:35;;;;;;;13.75;5.80;;;20.20;50.50;;;;;;4997993;28;20053;-43
2022/07/30 05:17:02;;;;;;;7.95;4.93;;;20.20;50.70;;;;;;5001105;28;20513;-45
2022/07/30 05:19:29;;;;;;;9.52;4.78;;;20.20;50.60;;;;;;5001113;28;20057;-45
2022/07/30 05:21:58;;;;;;;12.52;4.75;;;20.10;50.50;;;;;;4995764;28;20061;-43
2022/07/30 05:24:25;;;;;;;8.02;4.30;;;20.10;50.80;;;;;;4996120;28;20432;-43
2022/07/30 05:26:53;;;;;;;8.13;4.60;;;20.10;50.50;;;;;;5002291;28;20053;-45
2022/07/30 05:29:20;;;;;;;6.97;4.60;;;20.10;50.60;;;;;;4999343;28;20405;-44
2022/07/30 05:31:48;;;;;;;7.60;5.22;;;20.10;50.60;;;;;;4997188;28;20517;-48
2022/07/30 05:34:15;;;;;;;10.98;5.40;;;20.10;50.70;;;;;;4994231;28;20062;-42
2022/07/30 05:36:44;;;;;;;10.02;5.00;;;20.10;50.80;;;;;;4995217;28;21386;-45
2022/07/30 05:39:13;;;;;;;13.13;5.47;;;20.10;50.80;;;;;;5000634;28;20057;-43
2022/07/30 05:41:40;;;;;;;10.85;6.28;;;20.10;51.10;;;;;;4997689;28;20076;-44
2022/07/30 05:44:07;;;;;;;7.95;4.75;;;20.10;51.20;;;;;;4995286;28;20052;-43
2022/07/30 05:46:34;;;;;;;11.20;5.55;;;20.10;51.20;;;;;;4999660;28;20053;-42
2022/07/30 05:49:01;;;;;;;11.35;6.07;;;20.10;51.80;;;;;;4995645;28;20125;-44
2022/07/30 05:51:29;;;;;;;11.32;6.18;;;20.10;51.50;;;;;;4999254;28;20046;-42
2022/07/30 05:53:56;;;;;;;12.23;6.53;;;20.10;51.50;;;;;;4994647;28;20073;-44
2022/07/30 05:56:26;;;;;;;7.85;5.00;;;20.10;52.00;;;;;;5001012;28;20056;-46
2022/07/30 05:58:53;;;;;;;19.80;8.05;;;20.10;51.90;;;;;;4997998;28;20490;-46
2022/07/30 06:01:20;;;;;;;10.85;5.38;;;20.10;52.10;;;;;;4994151;28;20526;-43
2022/07/30 06:03:48;;;;;;;11.05;6.05;;;20.00;52.10;;;;;;4998293;28;20065;-44
2022/07/30 06:06:15;;;;;;;17.17;7.25;;;20.00;52.20;;;;;;4997153;28;20065;-44
2022/07/30 06:08:43;;;;;;;11.15;7.28;;;20.00;52.40;;;;;;4999833;28;20057;-45
2022/07/30 06:11:10;;;;;;;18.60;7.60;;;20.10;52.60;;;;;;4996911;28;20422;-44
2022/07/30 06:13:38;;;;;;;16.25;8.57;;;20.00;52.80;;;;;;4997407;28;20050;-44
2022/07/30 06:16:06;;;;;;;22.17;9.05;;;20.00;52.90;;;;;;5003041;28;20057;-48
2022/07/30 06:18:33;;;;;;;12.80;7.70;;;20.10;52.90;;;;;;5001301;28;20050;-43
2022/07/30 06:21:00;;;;;;;15.25;7.30;;;20.00;53.00;;;;;;4991488;28;20054;-45
2022/07/30 06:23:27;;;;;;;15.65;8.45;;;20.10;53.00;;;;;;4998777;28;20052;-44
2022/07/30 06:25:54;;;;;;;23.17;10.10;;;20.10;53.10;;;;;;4999607;28;20521;-44
2022/07/30 06:28:22;;;;;;;14.98;8.38;;;20.10;53.30;;;;;;5002485;28;20062;-42
2022/07/30 06:30:50;;;;;;;10.60;6.90;;;20.10;53.60;;;;;;4991035;28;20402;-43
2022/07/30 06:33:17;;;;;;;15.73;8.77;;;20.20;53.30;;;;;;4999707;28;20407;-48
2022/07/30 06:35:44;;;;;;;23.58;9.43;;;20.20;53.40;;;;;;4998668;28;20418;-44
2022/07/30 06:38:12;;;;;;;20.25;9.77;;;20.30;53.50;;;;;;5002777;28;20062;-44
2022/07/30 06:40:39;;;;;;;22.77;10.68;;;20.30;53.70;;;;;;4995202;28;20406;-44
2022/07/30 06:43:06;;;;;;;22.08;10.70;;;20.30;53.70;;;;;;4999783;28;20054;-48
2022/07/30 06:45:34;;;;;;;15.30;9.70;;;20.30;53.60;;;;;;4996549;28;20065;-45
2022/07/30 06:48:02;;;;;;;16.20;9.10;;;20.40;53.80;;;;;;5001191;28;20422;-45
2022/07/30 06:50:29;;;;;;;16.50;10.38;;;20.50;54.10;;;;;;4991199;28;20815;-43
2022/07/30 06:52:56;;;;;;;25.13;11.95;;;20.50;53.70;;;;;;5001841;28;20061;-42
2022/07/30 06:55:24;;;;;;;17.17;10.95;;;20.50;53.70;;;;;;4999182;28;20045;-43
2022/07/30 06:57:51;;;;;;;24.35;13.23;;;20.50;53.80;;;;;;5002245;28;20596;-51
2022/07/30 07:00:19;;;;;;;20.83;12.60;;;20.50;53.80;;;;;;4994206;28;20054;-47
2022/07/30 07:02:46;;;;;;;22.42;13.70;;;20.50;53.90;;;;;;4994664;28;20057;-46
2022/07/30 07:05:15;;;;;;;21.25;12.20;;;20.50;54.10;;;;;;4991160;28;20054;-47
2022/07/30 07:07:42;;;;;;;22.40;13.20;;;20.50;54.10;;;;;;5000514;28;20065;-45
2022/07/30 07:10:10;;;;;;;21.42;11.77;;;20.50;54.10;;;;;;4996532;28;20064;-43
2022/07/30 07:12:38;;;;;;;24.15;13.48;;;20.50;54.30;;;;;;5002328;28;20139;-46
2022/07/30 07:15:06;;;;;;;17.48;12.00;;;20.60;54.30;;;;;;5001501;28;20050;-47
2022/07/30 07:17:33;;;;;;;24.48;12.95;;;20.60;54.40;;;;;;4998820;28;20494;-46
2022/07/30 07:20:00;;;;;;;18.80;11.55;;;20.60;54.40;;;;;;5001429;28;20054;-44
2022/07/30 07:22:30;;;;;;;25.20;13.27;;;20.70;54.40;;;;;;4994132;28;20449;-46
2022/07/30 07:24:57;;;;;;;28.13;13.85;;;20.70;54.50;;;;;;4997854;28;20054;-45
2022/07/30 07:27:24;;;;;;;21.27;10.88;;;20.70;54.50;;;;;;4996957;28;20065;-46
2022/07/30 07:29:51;;;;;;;25.85;13.10;;;20.70;54.30;;;;;;4991449;28;20062;-47
2022/07/30 07:32:19;;;;;;;17.52;11.32;;;20.80;54.40;;;;;;4996572;28;20061;-44
2022/07/30 07:34:46;;;;;;;17.40;10.50;;;20.80;54.40;;;;;;4994862;28;20048;-42
2022/07/30 07:37:14;;;;;;;20.30;11.88;;;20.90;54.20;;;;;;4997359;28;20062;-45
2022/07/30 07:39:43;;;;;;;22.40;11.82;;;20.90;54.40;;;;;;4994611;28;20069;-44
2022/07/30 07:42:10;;;;;;;23.17;13.00;;;21.00;54.40;;;;;;4996051;28;20050;-44
2022/07/30 07:44:37;;;;;;;21.35;10.95;;;21.10;54.30;;;;;;4993599;28;20061;-42
2022/07/30 07:47:05;;;;;;;17.17;10.27;;;21.10;54.20;;;;;;4997633;28;20521;-46
2022/07/30 07:49:32;;;;;;;24.40;11.77;;;21.20;54.00;;;;;;5001839;28;20406;-43
2022/07/30 07:51:59;;;;;;;16.92;9.95;;;21.20;53.90;;;;;;5000531;28;20062;-43
2022/07/30 07:54:26;;;;;;;22.42;11.00;;;21.30;53.90;;;;;;4995573;28;20065;-43
2022/07/30 07:56:55;;;;;;;24.92;11.65;;;21.30;53.70;;;;;;4996444;28;20045;-47
2022/07/30 07:59:23;;;;;;;25.67;11.82;;;21.40;53.70;;;;;;4993607;28;20482;-44
2022/07/30 08:01:50;;;;;;;20.98;11.90;;;21.40;53.40;;;;;;4993672;28;20061;-45
2022/07/30 08:04:18;;;;;;;19.88;10.38;;;21.40;53.40;;;;;;4994829;28;20050;-46
2022/07/30 08:06:45;;;;;;;29.17;13.00;;;21.50;53.20;;;;;;4997166;28;20053;-46
2022/07/30 08:09:12;;;;;;;24.52;12.35;;;21.50;53.10;;;;;;5000665;28;20060;-43
2022/07/30 08:11:39;;;;;;;12.57;7.93;;;21.50;53.00;;;;;;4996930;28;20058;-46
2022/07/30 08:14:08;;;;;;;27.33;10.90;;;21.60;53.00;;;;;;4988642;28;20057;-43
2022/07/30 08:16:35;;;;;;;20.98;10.35;;;21.60;53.10;;;;;;4998844;28;20057;-47
2022/07/30 08:19:02;;;;;;;23.13;11.38;;;21.70;53.00;;;;;;5000367;28;20498;-43
2022/07/30 08:21:29;;;;;;;23.60;11.15;;;21.70;52.90;;;;;;4995163;28;20061;-45
2022/07/30 08:23:56;;;;;;;20.42;10.65;;;21.80;52.90;;;;;;4999248;28;20054;-44
2022/07/30 08:26:24;;;;;;;25.55;13.27;;;21.90;52.70;;;;;;4996090;28;20050;-46
2022/07/30 08:28:51;;;;;;;19.20;10.98;;;21.90;52.10;;;;;;5001207;28;20077;-44
2022/07/30 08:31:19;;;;;;;24.27;10.55;;;22.00;52.30;;;;;;4996287;28;20057;-44
2022/07/30 08:33:46;;;;;;;22.85;12.82;;;22.00;52.20;;;;;;4995476;28;20050;-46
2022/07/30 08:36:14;;;;;;;21.02;10.48;;;22.00;51.80;;;;;;4997050;28;20057;-49
2022/07/30 08:38:41;;;;;;;34.92;12.35;;;22.10;52.00;;;;;;4997981;28;20057;-44
2022/07/30 08:41:09;;;;;;;22.98;11.95;;;22.10;51.40;;;;;;4995119;28;20414;-46
2022/07/30 08:43:37;;;;;;;24.70;11.90;;;22.20;51.70;;;;;;5000558;28;20058;-46
2022/07/30 08:46:08;;;;;;;24.67;12.25;;;22.30;52.10;;;;;;4999932;28;20054;-48
2022/07/30 08:48:37;;;;;;;29.02;13.32;;;22.30;51.90;;;;;;5001705;28;20068;-43
2022/07/30 08:51:05;;;;;;;26.23;11.57;;;22.40;51.50;;;;;;5002517;28;20054;-44
2022/07/30 08:53:33;;;;;;;18.70;10.25;;;22.50;51.40;;;;;;5000415;28;20066;-42
2022/07/30 08:56:01;;;;;;;22.80;11.02;;;22.50;51.20;;;;;;5002481;28;20058;-49
2022/07/30 08:58:29;;;;;;;21.35;9.88;;;22.60;50.50;;;;;;4999141;28;20061;-45
2022/07/30 09:00:57;;;;;;;19.88;8.23;;;22.70;49.60;;;;;;5001857;28;20058;-43
2022/07/30 09:03:24;;;;;;;23.80;9.40;;;22.70;48.90;;;;;;5005032;28;20410;-46
2022/07/30 09:05:52;;;;;;;17.23;8.90;;;22.80;49.40;;;;;;5003536;28;20096;-46
2022/07/30 09:08:20;;;;;;;19.85;8.82;;;22.80;49.10;;;;;;4995338;28;20058;-46
2022/07/30 09:10:48;;;;;;;23.30;9.00;;;22.80;48.50;;;;;;4995123;28;20058;-46
2022/07/30 09:13:26;;;;;;;15.23;7.18;;;22.90;48.50;;;;;;4999111;28;20063;-42
2022/07/30 09:15:54;;;;;;;21.17;9.40;;;22.90;49.00;;;;;;4996654;28;20050;-44
2022/07/30 09:18:32;;;;;;;19.75;10.50;;;22.90;48.50;;;;;;4998099;28;20058;-42
2022/07/30 09:21:14;;;;;;;27.38;9.82;;;23.00;49.00;;;;;;4996442;28;20080;-48
2022/07/30 09:23:54;;;;;;;24.27;10.90;;;23.10;49.10;;;;;;5003393;28;20058;-47
2022/07/30 09:26:22;;;;;;;16.70;9.40;;;23.20;48.40;;;;;;5000766;28;20056;-43
2022/07/30 09:28:49;;;;;;;16.67;9.95;;;23.30;48.70;;;;;;4999394;28;20054;-44
2022/07/30 09:31:17;;;;;;;19.83;9.15;;;23.30;47.80;;;;;;4998796;28;20513;-43
2022/07/30 09:33:46;;;;;;;20.35;10.18;;;23.30;47.00;;;;;;5002387;28;20058;-44
2022/07/30 09:36:16;;;;;;;17.10;9.38;;;23.40;46.90;;;;;;4999482;28;21132;-42
2022/07/30 09:38:47;;;;;;;13.23;7.78;;;23.40;47.20;;;;;;4997327;28;20056;-46
2022/07/30 09:41:16;;;;;;;15.88;9.77;;;23.50;47.40;;;;;;5000108;28;20417;-51
2022/07/30 09:43:46;;;;;;;16.38;9.40;;;23.50;46.80;;;;;;4998111;28;20066;-44
2022/07/30 09:46:13;;;;;;;16.63;7.75;;;23.60;45.90;;;;;;4994754;28;20070;-43
2022/07/30 09:48:41;;;;;;;20.33;10.98;;;23.60;46.40;;;;;;4994213;28;20066;-44
2022/07/30 09:51:08;;;;;;;17.48;7.35;;;23.60;45.20;;;;;;4993938;28;20053;-45
2022/07/30 09:53:52;;;;;;;13.40;7.43;;;23.70;46.00;;;;;;4995478;28;20838;-49
2022/07/30 09:56:27;;;;;;;29.40;10.05;;;23.70;46.40;;;;;;5000836;28;20054;-43
2022/07/30 09:58:55;;;;;;;18.85;9.65;;;23.80;45.30;;;;;;5000292;28;20070;-44
2022/07/30 10:01:22;;;;;;;22.20;8.88;;;23.80;45.50;;;;;;4999433;28;20064;-46
2022/07/30 10:03:49;;;;;;;18.73;9.27;;;23.90;45.90;;;;;;5005281;28;20058;-43
2022/07/30 10:06:17;;;;;;;20.23;10.55;;;24.00;45.90;;;;;;4999686;28;20401;-47
2022/07/30 10:08:48;;;;;;;24.33;9.20;;;24.00;45.10;;;;;;4997691;28;20061;-47
2022/07/30 10:11:18;;;;;;;20.38;10.98;;;24.10;45.00;;;;;;4997949;28;20054;-46
2022/07/30 10:13:48;;;;;;;24.83;10.77;;;24.10;44.80;;;;;;4992543;28;20383;-45
2022/07/30 10:16:15;;;;;;;18.30;10.27;;;24.20;45.20;;;;;;5000584;28;20054;-46
2022/07/30 10:18:43;;;;;;;22.95;10.60;;;24.20;45.10;;;;;;4997685;28;20068;-44
2022/07/30 10:21:10;;;;;;;25.70;11.07;;;24.30;44.00;;;;;;4999619;28;20057;-46
2022/07/30 10:23:39;;;;;;;18.35;11.13;;;24.30;44.30;;;;;;5001650;28;20500;-45
2022/07/30 10:26:09;;;;;;;14.57;8.02;;;24.30;44.30;;;;;;4999386;28;20073;-47
2022/07/30 10:28:36;;;;;;;24.45;10.60;;;24.30;44.40;;;;;;4995844;28;20049;-47
2022/07/30 10:31:04;;;;;;;15.80;9.00;;;24.40;44.50;;;;;;4984720;28;20050;-43
2022/07/30 10:33:31;;;;;;;15.65;10.00;;;24.40;44.70;;;;;;4998878;28;20073;-47
2022/07/30 10:36:02;;;;;;;19.02;9.50;;;24.40;44.50;;;;;;4992220;28;20487;-44
2022/07/30 10:38:37;;;;;;;13.70;7.85;;;24.40;44.20;;;;;;4999585;28;20061;-46
2022/07/30 10:41:16;;;;;;;26.10;12.52;;;24.50;44.70;;;;;;5000343;28;20062;-44
2022/07/30 10:44:10;;;;;;;30.55;11.80;;;24.60;44.30;;;;;;4996078;28;20046;-44
2022/07/30 10:46:54;;;;;;;21.15;9.25;;;24.60;43.60;;;;;;5001773;28;20065;-46
2022/07/30 10:49:31;;;;;;;23.92;10.68;;;24.60;43.40;;;;;;5002944;28;20054;-47
2022/07/30 10:52:02;;;;;;;19.55;10.35;;;24.60;43.00;;;;;;4998980;28;20064;-45
2022/07/30 10:54:43;;;;;;;19.02;8.82;;;24.50;43.30;;;;;;4998317;28;20057;-43
2022/07/30 10:57:20;;;;;;;16.73;10.20;;;24.50;43.70;;;;;;5001940;28;20057;-50
2022/07/30 11:00:12;;;;;;;19.70;8.30;;;24.50;43.80;;;;;;4997780;28;20174;-44
2022/07/30 11:03:02;;;;;;;20.63;8.63;;;24.50;44.50;;;;;;4999713;28;20054;-43
2022/07/30 11:05:32;;;;;;;14.32;7.47;;;24.50;44.30;;;;;;5000815;28;20399;-44
2022/07/30 11:08:35;;;;;;;13.05;6.32;;;24.60;43.30;;;;;;5001266;28;20513;-45
2022/07/30 11:11:06;;;;;;;12.52;6.70;;;24.50;42.80;;;;;;4997036;28;20057;-43
2022/07/30 11:13:56;;;;;;;22.48;7.90;;;24.60;42.80;;;;;;4998487;28;20057;-43
2022/07/30 11:17:02;;;;;;;11.25;6.03;;;24.60;43.10;;;;;;4997287;28;20505;-47
2022/07/30 11:19:31;;;;;;;13.30;6.72;;;24.70;43.00;;;;;;4999730;28;20050;-46
2022/07/30 11:32:35;;;;;;;7.25;3.42;;;24.80;42.40;;;;;;4997881;28;20048;-43
2022/07/30 11:35:17;;;;;;;10.45;3.92;;;24.90;42.50;;;;;;5001055;28;20548;-44
2022/07/30 11:37:59;;;;;;;10.20;4.18;;;24.90;41.80;;;;;;4999982;28;20441;-43
2022/07/30 11:40:27;;;;;;;16.58;6.60;;;25.00;41.70;;;;;;5000742;28;20064;-47
2022/07/30 11:43:17;;;;;;;10.52;4.53;;;25.00;40.90;;;;;;5001015;28;20065;-48
2022/07/30 11:45:45;;;;;;;9.73;4.47;;;25.00;41.50;;;;;;5002369;28;20054;-45
2022/07/30 11:48:15;;;;;;;9.85;3.50;;;25.10;41.60;;;;;;5001089;28;20050;-43
2022/07/30 11:50:44;;;;;;;12.43;4.57;;;25.20;41.50;;;;;;4998873;28;20056;-46
2022/07/30 11:53:15;;;;;;;9.32;4.32;;;25.20;40.90;;;;;;4999926;28;20057;-45
2022/07/30 11:55:46;;;;;;;7.93;4.10;;;25.20;39.00;;;;;;4993798;28;20062;-45
2022/07/30 11:58:25;;;;;;;10.32;3.58;;;25.20;37.80;;;;;;4996884;28;20569;-45
2022/07/30 12:00:53;;;;;;;7.68;2.83;;;25.30;38.40;;;;;;4994149;28;20058;-47
2022/07/30 12:03:23;;;;;;;6.07;2.97;;;25.30;38.90;;;;;;5001822;28;20058;-45
2022/07/30 12:05:50;;;;;;;9.57;4.40;;;25.30;37.90;;;;;;4990820;28;20429;-45
2022/07/30 12:08:18;;;;;;;10.38;4.00;;;25.40;37.40;;;;;;5001072;28;20045;-43
2022/07/30 12:10:56;;;;;;;5.68;2.80;;;25.50;38.50;;;;;;4997102;28;20060;-43
2022/07/30 12:13:23;;;;;;;13.18;2.80;;;25.50;37.60;;;;;;4997615;28;20057;-44
2022/07/30 12:15:50;;;;;;;7.57;3.20;;;25.60;38.00;;;;;;4989139;28;20541;-43
2022/07/30 12:18:27;;;;;;;11.90;3.55;;;25.70;36.70;;;;;;4992973;28;20054;-45
2022/07/30 12:20:56;;;;;;;6.38;3.25;;;25.70;34.40;;;;;;4996723;28;20510;-45
2022/07/30 12:23:24;;;;;;;5.22;2.83;;;25.70;35.10;;;;;;4996880;28;20065;-45
2022/07/30 12:25:51;;;;;;;10.90;2.60;;;25.70;35.20;;;;;;5001395;28;20054;-47
2022/07/30 12:28:23;;;;;;;5.13;2.28;;;25.80;34.50;;;;;;4998111;28;20054;-46
2022/07/30 12:30:51;;;;;;;5.13;2.10;;;25.80;34.40;;;;;;4993286;28;20053;-43
2022/07/30 12:33:18;;;;;;;5.65;1.95;;;25.90;34.60;;;;;;4995347;28;20077;-47
2022/07/30 12:35:48;;;;;;;3.90;1.80;;;26.00;34.50;;;;;;4993226;28;20050;-46
2022/07/30 12:38:17;;;;;;;4.97;2.33;;;26.00;34.10;;;;;;4994408;28;20060;-42
2022/07/30 12:40:55;;;;;;;8.25;2.83;;;26.10;34.40;;;;;;4994692;28;20513;-43
2022/07/30 12:43:45;;;;;;;6.10;2.63;;;26.10;33.40;;;;;;4996668;28;20061;-45
2022/07/30 12:46:15;;;;;;;7.35;3.40;;;26.20;34.20;;;;;;4999309;28;20053;-50
2022/07/30 12:48:53;;;;;;;7.28;3.45;;;26.20;32.80;;;;;;4998113;28;20501;-49
2022/07/30 12:51:23;;;;;;;5.22;2.80;;;26.20;32.90;;;;;;4996712;28;20081;-45
2022/07/30 12:53:51;;;;;;;12.50;3.88;;;26.30;34.20;;;;;;4991810;28;20058;-46
2022/07/30 12:56:20;;;;;;;7.75;4.05;;;26.30;34.00;;;;;;5001531;28;20670;-48
2022/07/30 12:58:47;;;;;;;7.35;3.50;;;26.40;33.70;;;;;;4994855;28;20061;-48
2022/07/30 13:01:15;;;;;;;8.32;3.65;;;26.40;34.30;;;;;;4996294;28;20054;-47
2022/07/30 13:03:44;;;;;;;7.35;3.83;;;26.50;35.20;;;;;;4998649;28;20138;-44
2022/07/30 13:06:14;;;;;;;10.45;3.88;;;26.50;34.80;;;;;;4999557;28;20058;-43